createdAt,value
2018-05-13T00:00:54.252Z,77.02
2018-05-13T00:03:21.775Z,77.27
2018-05-13T00:05:49.238Z,77.22
2018-05-13T00:08:16.690Z,77.17
2018-05-13T00:10:44.202Z,77.04
2018-05-13T00:13:11.807Z,77.92
2018-05-13T00:15:39.257Z,77.51
2018-05-13T00:18:06.762Z,77.60
2018-05-13T00:20:40.553Z,77.30
2018-05-13T00:23:08.871Z,77.53
2018-05-13T00:25:36.471Z,78.38
2018-05-13T00:28:03.910Z,77.58
2018-05-13T00:30:31.361Z,77.36
2018-05-13T00:32:58.850Z,77.79
2018-05-13T00:35:27.421Z,78.14
2018-05-13T00:37:55.213Z,78.42
2018-05-13T00:40:22.676Z,78.20
2018-05-13T00:42:50.126Z,77.48
2018-05-13T00:45:17.593Z,77.37
2018-05-13T00:47:45.033Z,77.54
2018-05-13T00:50:12.517Z,77.84
2018-05-13T00:52:39.974Z,76.01
2018-05-13T00:55:07.447Z,75.93
2018-05-13T00:57:34.872Z,76.52
2018-05-13T01:00:02.286Z,75.75
2018-05-13T01:02:29.695Z,76.32
2018-05-13T01:04:57.144Z,76.33
2018-05-13T01:07:43.320Z,76.97
2018-05-13T01:10:10.746Z,76.80
2018-05-13T01:12:38.199Z,75.93
2018-05-13T01:15:05.992Z,74.77
2018-05-13T01:17:34.064Z,75.62
2018-05-13T01:20:08.476Z,75.35
2018-05-13T01:22:35.903Z,76.57
2018-05-13T01:25:03.336Z,76.71
2018-05-13T01:27:30.765Z,76.79
2018-05-13T01:29:58.224Z,76.60
2018-05-13T01:32:25.675Z,77.14
2018-05-13T01:34:53.140Z,77.36
2018-05-13T01:37:20.590Z,77.10
2018-05-13T01:39:48.072Z,76.84
2018-05-13T01:42:15.473Z,76.71
2018-05-13T01:44:42.936Z,76.71
2018-05-13T01:47:11.692Z,76.54
2018-05-13T01:49:39.147Z,76.50
2018-05-13T01:52:06.580Z,77.35
2018-05-13T01:54:34.059Z,77.12
2018-05-13T01:57:01.468Z,77.37
2018-05-13T01:59:28.899Z,77.16
2018-05-13T02:01:56.317Z,77.00
2018-05-13T02:04:24.178Z,77.21
2018-05-13T02:06:51.640Z,77.73
2018-05-13T02:09:19.741Z,78.38
2018-05-13T02:11:47.146Z,78.20
2018-05-13T02:14:14.596Z,78.05
2018-05-13T02:16:42.065Z,77.93
2018-05-13T02:19:10.159Z,78.04
2018-05-13T02:21:40.759Z,77.76
2018-05-13T02:24:08.151Z,77.22
2018-05-13T02:26:35.547Z,77.11
2018-05-13T02:29:03.131Z,76.71
2018-05-13T02:31:31.492Z,77.15
2018-05-13T02:33:58.883Z,77.25
2018-05-13T02:36:26.332Z,77.39
2018-05-13T02:38:53.816Z,77.32
2018-05-13T02:41:21.282Z,76.77
2018-05-13T02:43:48.897Z,76.91
2018-05-13T02:46:16.356Z,77.26
2018-05-13T02:48:43.809Z,76.57
2018-05-13T02:51:11.240Z,76.07
2018-05-13T02:53:38.682Z,75.40
2018-05-13T02:56:08.769Z,73.93
2018-05-13T02:58:36.196Z,73.33
2018-05-13T03:01:03.833Z,73.08
2018-05-13T03:03:31.291Z,73.77
2018-05-13T03:05:58.732Z,73.88
2018-05-13T03:08:31.249Z,74.02
2018-05-13T03:10:58.739Z,73.85
2018-05-13T03:13:26.176Z,73.61
2018-05-13T03:15:53.617Z,73.82
2018-05-13T03:18:21.063Z,73.83
2018-05-13T03:20:48.520Z,73.61
2018-05-13T03:23:16.035Z,74.11
2018-05-13T03:25:43.443Z,74.18
2018-05-13T03:28:10.846Z,74.55
2018-05-13T03:30:38.292Z,74.42
2018-05-13T03:33:05.717Z,74.57
2018-05-13T03:35:33.235Z,74.56
2018-05-13T03:38:00.944Z,74.75
2018-05-13T03:40:28.365Z,74.97
2018-05-13T03:42:56.409Z,73.87
2018-05-13T03:45:23.876Z,74.61
2018-05-13T03:47:51.324Z,74.58
2018-05-13T03:50:18.789Z,74.47
2018-05-13T03:52:46.211Z,74.08
2018-05-13T03:55:14.099Z,72.94
2018-05-13T03:57:41.527Z,73.21
2018-05-13T04:00:09.088Z,72.93
2018-05-13T04:02:36.587Z,73.44
2018-05-13T04:05:04.042Z,73.69
2018-05-13T04:07:31.465Z,73.74
2018-05-13T04:10:10.629Z,73.20
2018-05-13T04:12:50.009Z,73.26
2018-05-13T04:15:21.048Z,73.39
2018-05-13T04:17:48.470Z,73.99
2018-05-13T04:20:15.867Z,73.34
2018-05-13T04:22:43.308Z,73.15
2018-05-13T04:25:10.740Z,73.51
2018-05-13T04:27:38.161Z,73.72
2018-05-13T04:30:05.604Z,73.79
2018-05-13T04:32:33.381Z,73.70
2018-05-13T04:35:00.796Z,73.29
2018-05-13T04:37:28.234Z,72.90
2018-05-13T04:39:55.650Z,73.28
2018-05-13T04:42:23.039Z,73.82
2018-05-13T04:44:50.472Z,74.75
2018-05-13T04:47:17.900Z,74.89
2018-05-13T04:49:45.327Z,74.87
2018-05-13T04:52:12.808Z,74.59
2018-05-13T04:54:40.284Z,74.60
2018-05-13T04:57:07.764Z,74.48
2018-05-13T04:59:35.224Z,74.42
2018-05-13T05:02:02.674Z,74.26
2018-05-13T05:04:30.236Z,74.08
2018-05-13T05:06:57.673Z,74.45
2018-05-13T05:09:25.878Z,74.25
2018-05-13T05:11:54.529Z,74.14
2018-05-13T05:14:21.971Z,73.82
2018-05-13T05:16:49.395Z,74.12
2018-05-13T05:19:16.797Z,74.05
2018-05-13T05:21:44.233Z,74.15
2018-05-13T05:24:11.669Z,74.35
2018-05-13T05:26:39.393Z,74.07
2018-05-13T05:29:06.837Z,73.91
2018-05-13T05:31:34.271Z,73.56
2018-05-13T05:34:01.731Z,73.51
2018-05-13T05:36:29.185Z,73.74
2018-05-13T05:38:56.632Z,73.94
2018-05-13T05:41:24.024Z,73.99
2018-05-13T05:43:51.452Z,73.88
2018-05-13T05:46:18.885Z,74.06
2018-05-13T05:48:47.466Z,74.11
2018-05-13T05:51:14.960Z,74.74
2018-05-13T05:53:42.358Z,75.73
2018-05-13T05:56:09.832Z,73.91
2018-05-13T05:58:37.248Z,73.62
2018-05-13T06:01:04.703Z,74.31
2018-05-13T06:03:32.142Z,74.38
2018-05-13T06:05:59.578Z,74.74
2018-05-13T06:08:27.010Z,74.50
2018-05-13T06:10:54.432Z,73.85
2018-05-13T06:13:21.875Z,73.59
2018-05-13T06:15:49.278Z,72.90
2018-05-13T06:18:16.749Z,72.59
2018-05-13T06:20:44.144Z,72.73
2018-05-13T06:23:12.100Z,73.47
2018-05-13T06:25:39.498Z,73.96
2018-05-13T06:28:07.050Z,73.98
2018-05-13T06:30:34.533Z,74.45
2018-05-13T06:33:01.932Z,73.84
2018-05-13T06:35:29.374Z,74.14
2018-05-13T06:37:57.382Z,73.78
2018-05-13T06:40:25.148Z,73.95
2018-05-13T06:42:52.546Z,74.30
2018-05-13T06:45:20.091Z,74.51
2018-05-13T06:47:47.475Z,75.49
2018-05-13T06:50:18.640Z,75.55
2018-05-13T06:52:46.099Z,75.12
2018-05-13T06:55:14.963Z,75.60
2018-05-13T06:57:42.470Z,74.79
2018-05-13T07:00:09.908Z,74.91
2018-05-13T07:02:37.332Z,74.69
2018-05-13T07:05:04.758Z,74.41
2018-05-13T07:07:32.162Z,74.23
2018-05-13T07:09:59.585Z,74.88
2018-05-13T07:12:27.005Z,74.67
2018-05-13T07:14:55.204Z,75.23
2018-05-13T07:17:22.624Z,75.82
2018-05-13T07:19:50.027Z,76.35
2018-05-13T07:22:17.455Z,76.14
2018-05-13T07:24:44.887Z,74.84
2018-05-13T07:27:13.288Z,74.85
2018-05-13T07:29:40.735Z,74.50
2018-05-13T07:32:08.220Z,74.11
2018-05-13T07:34:35.691Z,74.44
2018-05-13T07:37:03.131Z,74.37
2018-05-13T07:39:30.590Z,74.10
2018-05-13T07:41:58.045Z,73.62
2018-05-13T07:44:25.482Z,73.67
2018-05-13T07:46:53.049Z,73.27
2018-05-13T07:49:21.913Z,73.33
2018-05-13T07:51:49.423Z,74.24
2018-05-13T07:54:16.826Z,73.82
2018-05-13T07:56:44.321Z,73.61
2018-05-13T07:59:13.413Z,73.83
2018-05-13T08:01:40.891Z,73.66
2018-05-13T08:04:08.360Z,73.34
2018-05-13T08:06:35.780Z,73.22
2018-05-13T08:09:03.212Z,73.14
2018-05-13T08:11:31.024Z,72.95
2018-05-13T08:13:59.041Z,72.92
2018-05-13T08:16:26.592Z,72.75
2018-05-13T08:18:59.538Z,72.44
2018-05-13T08:21:26.964Z,72.59
2018-05-13T08:23:54.403Z,72.74
2018-05-13T08:26:21.872Z,72.70
2018-05-13T08:28:49.267Z,72.77
2018-05-13T08:31:18.288Z,72.77
2018-05-13T08:33:45.684Z,73.13
2018-05-13T08:36:13.108Z,72.71
2018-05-13T08:38:42.559Z,73.12
2018-05-13T08:41:10.819Z,75.52
2018-05-13T08:43:38.290Z,73.36
2018-05-13T08:46:05.688Z,71.25
2018-05-13T08:48:33.249Z,71.61
2018-05-13T08:51:00.595Z,72.06
2018-05-13T08:53:28.012Z,71.72
2018-05-13T08:55:55.406Z,72.11
2018-05-13T08:58:22.859Z,71.19
2018-05-13T09:00:50.281Z,71.07
2018-05-13T09:03:17.716Z,71.68
2018-05-13T09:05:45.170Z,71.75
2018-05-13T09:08:12.670Z,71.39
2018-05-13T09:10:40.132Z,71.77
2018-05-13T09:13:07.589Z,71.99
2018-05-13T09:15:35.027Z,71.87
2018-05-13T09:18:02.554Z,71.12
2018-05-13T09:20:30.062Z,71.36
2018-05-13T09:22:57.448Z,70.40
2018-05-13T09:25:24.926Z,69.34
2018-05-13T09:27:53.884Z,69.00
2018-05-13T09:30:21.303Z,68.79
2018-05-13T09:32:51.512Z,68.39
2018-05-13T09:35:18.944Z,68.51
2018-05-13T09:37:46.448Z,68.09
2018-05-13T09:40:13.854Z,67.43
2018-05-13T09:42:41.305Z,67.39
2018-05-13T09:45:08.735Z,68.16
2018-05-13T09:47:36.139Z,68.67
2018-05-13T09:50:04.168Z,68.66
2018-05-13T09:52:31.638Z,68.52
2018-05-13T09:54:59.837Z,68.43
2018-05-13T09:57:27.265Z,68.21
2018-05-13T09:59:54.686Z,67.73
2018-05-13T10:02:22.179Z,68.15
2018-05-13T10:04:49.746Z,68.20
2018-05-13T10:07:17.177Z,67.77
2018-05-13T10:09:44.575Z,67.88
2018-05-13T10:12:12.058Z,67.84
2018-05-13T10:14:39.493Z,68.59
2018-05-13T10:17:06.968Z,68.25
2018-05-13T10:19:34.406Z,67.49
2018-05-13T10:22:01.831Z,67.26
2018-05-13T10:24:29.298Z,66.49
2018-05-13T10:26:58.023Z,65.91
2018-05-13T10:29:25.479Z,65.58
2018-05-13T10:31:57.897Z,65.26
2018-05-13T10:34:25.299Z,64.91
2018-05-13T10:36:52.777Z,65.48
2018-05-13T10:39:20.244Z,64.53
2018-05-13T10:41:49.527Z,64.92
2018-05-13T10:44:16.971Z,63.99
2018-05-13T10:46:44.405Z,64.56
2018-05-13T10:49:12.211Z,64.82
2018-05-13T10:51:39.677Z,64.37
2018-05-13T10:54:07.325Z,64.42
2018-05-13T10:56:34.816Z,64.58
2018-05-13T10:59:02.233Z,64.06
2018-05-13T11:01:29.626Z,63.96
2018-05-13T11:03:57.035Z,63.83
2018-05-13T11:06:24.536Z,63.64
2018-05-13T11:08:52.007Z,63.41
2018-05-13T11:11:19.396Z,62.56
2018-05-13T11:13:47.627Z,61.88
2018-05-13T11:16:15.966Z,62.28
2018-05-13T11:18:43.901Z,62.99
2018-05-13T11:21:11.326Z,63.09
2018-05-13T11:23:38.751Z,62.85
2018-05-13T11:26:06.180Z,62.71
2018-05-13T11:28:33.640Z,62.10
2018-05-13T11:31:02.729Z,62.57
2018-05-13T11:33:30.163Z,62.64
2018-05-13T11:35:57.633Z,62.19
2018-05-13T11:38:25.174Z,63.05
2018-05-13T11:40:52.631Z,62.69
2018-05-13T11:43:20.088Z,63.24
2018-05-13T11:45:47.567Z,64.57
2018-05-13T11:48:15.021Z,64.51
2018-05-13T11:50:42.475Z,64.29
2018-05-13T11:53:12.493Z,63.44
2018-05-13T11:55:40.043Z,63.11
2018-05-13T11:58:07.521Z,62.52
2018-05-13T12:00:34.973Z,61.79
2018-05-13T12:03:02.446Z,62.26
2018-05-13T12:05:29.880Z,62.33
2018-05-13T12:07:57.324Z,63.14
2018-05-13T12:10:24.800Z,63.34
2018-05-13T12:12:52.231Z,62.36
2018-05-13T12:15:19.688Z,62.31
2018-05-13T12:17:47.114Z,62.74
2018-05-13T12:20:14.569Z,62.56
2018-05-13T12:22:42.065Z,61.96
2018-05-13T12:25:09.494Z,61.75
2018-05-13T12:27:36.924Z,60.70
2018-05-13T12:30:04.401Z,60.18
2018-05-13T12:32:31.794Z,60.19
2018-05-13T12:34:59.257Z,59.17
2018-05-13T12:37:27.545Z,59.78
2018-05-13T12:39:54.986Z,59.08
2018-05-13T12:42:22.519Z,58.96
2018-05-13T12:44:49.980Z,58.63
2018-05-13T12:47:18.557Z,57.66
2018-05-13T12:49:45.971Z,57.79
2018-05-13T12:52:13.375Z,57.56
2018-05-13T12:54:40.809Z,56.55
2018-05-13T12:57:08.243Z,56.50
2018-05-13T12:59:35.659Z,55.87
2018-05-13T13:02:03.103Z,56.89
2018-05-13T13:04:32.202Z,56.61
2018-05-13T13:06:59.604Z,56.48
2018-05-13T13:09:27.123Z,56.92
2018-05-13T13:11:54.618Z,56.94
2018-05-13T13:14:22.111Z,56.50
2018-05-13T13:16:49.639Z,56.30
2018-05-13T13:19:17.031Z,56.49
2018-05-13T13:21:44.457Z,56.39
2018-05-13T13:24:11.872Z,55.85
2018-05-13T13:26:39.275Z,55.91
2018-05-13T13:29:06.722Z,55.47
2018-05-13T13:31:34.122Z,55.21
2018-05-13T13:34:01.560Z,54.74
2018-05-13T13:36:29.079Z,55.35
2018-05-13T13:39:01.149Z,54.63
2018-05-13T13:41:28.583Z,54.98
2018-05-13T13:43:56.039Z,54.94
2018-05-13T13:46:23.474Z,54.67
2018-05-13T13:48:50.937Z,54.94
2018-05-13T13:51:18.811Z,54.89
2018-05-13T13:53:49.943Z,54.43
2018-05-13T13:56:17.391Z,55.41
2018-05-13T13:58:44.982Z,55.52
2018-05-13T14:01:12.424Z,56.29
2018-05-13T14:03:41.116Z,57.82
2018-05-13T14:06:08.617Z,57.64
2018-05-13T14:08:36.832Z,58.22
2018-05-13T14:11:04.315Z,60.97
2018-05-13T14:13:31.806Z,62.75
2018-05-13T14:15:59.247Z,62.68
2018-05-13T14:18:26.710Z,62.88
2018-05-13T14:20:55.277Z,63.45
2018-05-13T14:23:22.675Z,64.23
2018-05-13T14:25:50.172Z,64.71
2018-05-13T14:28:17.603Z,65.02
2018-05-13T14:30:45.213Z,65.11
2018-05-13T14:33:12.663Z,65.94
2018-05-13T14:35:41.560Z,66.29
2018-05-13T14:38:09.267Z,67.20
2018-05-13T14:40:36.635Z,67.62
2018-05-13T14:43:05.143Z,66.76
2018-05-13T14:45:32.586Z,66.07
2018-05-13T14:48:00.009Z,65.69
2018-05-13T14:50:27.450Z,65.95
2018-05-13T14:52:54.903Z,65.71
2018-05-13T14:55:22.519Z,66.67
2018-05-13T14:57:50.800Z,66.54
2018-05-13T15:00:18.233Z,66.02
2018-05-13T15:02:45.680Z,64.98
2018-05-13T15:05:13.092Z,63.73
2018-05-13T15:07:40.497Z,65.06
2018-05-13T15:10:09.828Z,65.20
2018-05-13T15:12:37.257Z,63.00
2018-05-13T15:15:04.701Z,62.97
2018-05-13T15:17:32.124Z,62.57
2018-05-13T15:19:59.603Z,63.07
2018-05-13T15:22:32.649Z,62.76
2018-05-13T15:25:00.089Z,62.43
2018-05-13T15:27:27.556Z,62.64
2018-05-13T15:29:54.989Z,61.33
2018-05-13T15:32:22.454Z,61.51
2018-05-13T15:34:49.883Z,60.84
2018-05-13T15:37:17.354Z,61.18
2018-05-13T15:39:44.763Z,60.83
2018-05-13T15:42:12.238Z,60.77
2018-05-13T15:44:39.628Z,61.17
2018-05-13T15:47:07.103Z,61.66
2018-05-13T15:49:34.537Z,63.40
2018-05-13T15:52:01.964Z,66.10
2018-05-13T15:54:30.014Z,67.19
2018-05-13T15:56:57.422Z,67.98
2018-05-13T15:59:24.939Z,69.48
2018-05-13T16:01:52.395Z,70.53
2018-05-13T16:04:19.798Z,71.01
2018-05-13T16:06:47.238Z,71.37
2018-05-13T16:09:15.416Z,72.02
2018-05-13T16:11:42.839Z,72.11
2018-05-13T16:14:10.425Z,71.82
2018-05-13T16:16:38.634Z,72.14
2018-05-13T16:19:06.387Z,72.71
2018-05-13T16:21:33.922Z,73.45
2018-05-13T16:24:01.450Z,73.25
2018-05-13T16:26:28.928Z,73.26
2018-05-13T16:28:56.365Z,73.46
2018-05-13T16:31:23.832Z,74.00
2018-05-13T16:33:53.034Z,73.38
2018-05-13T16:36:20.503Z,73.02
2018-05-13T16:38:47.912Z,73.16
2018-05-13T16:41:17.203Z,72.54
2018-05-13T16:43:44.721Z,72.88
2018-05-13T16:46:22.516Z,73.55
2018-05-13T16:48:49.940Z,74.47
2018-05-13T16:51:17.376Z,74.91
2018-05-13T16:53:44.828Z,75.75
2018-05-13T16:56:13.090Z,75.85
2018-05-13T16:58:41.221Z,75.61
2018-05-13T17:01:19.658Z,76.17
2018-05-13T17:03:47.239Z,76.14
2018-05-13T17:06:14.666Z,76.19
2018-05-13T17:08:42.107Z,76.16
2018-05-13T17:11:09.515Z,75.88
2018-05-13T17:13:37.001Z,75.67
2018-05-13T17:16:04.472Z,75.98
2018-05-13T17:18:31.999Z,75.69
2018-05-13T17:20:59.448Z,75.96
2018-05-13T17:23:26.949Z,76.25
2018-05-13T17:25:54.488Z,75.96
2018-05-13T17:28:21.933Z,76.39
2018-05-13T17:30:49.401Z,76.69
2018-05-13T17:33:16.811Z,76.75
2018-05-13T17:35:45.084Z,77.18
2018-05-13T17:38:13.396Z,76.36
2018-05-13T17:40:40.932Z,76.33
2018-05-13T17:43:08.363Z,76.17
2018-05-13T17:45:36.840Z,76.00
2018-05-13T17:48:04.278Z,75.93
2018-05-13T17:50:33.572Z,76.50
2018-05-13T17:53:01.008Z,76.61
2018-05-13T17:55:30.125Z,76.69
2018-05-13T17:57:57.577Z,76.81
2018-05-13T18:00:25.951Z,76.79
2018-05-13T18:02:53.378Z,76.59
2018-05-13T18:05:20.813Z,76.46
2018-05-13T18:07:50.280Z,76.41
2018-05-13T18:10:18.350Z,76.26
2018-05-13T18:12:45.810Z,76.35
2018-05-13T18:15:13.348Z,76.52
2018-05-13T18:17:40.935Z,75.88
2018-05-13T18:20:08.410Z,75.46
2018-05-13T18:22:35.898Z,75.48
2018-05-13T18:25:04.040Z,74.77
2018-05-13T18:27:31.581Z,75.36
2018-05-13T18:29:59.085Z,75.34
2018-05-13T18:32:26.501Z,75.48
2018-05-13T18:34:55.033Z,75.44
2018-05-13T18:37:22.436Z,75.54
2018-05-13T18:39:49.862Z,75.39
2018-05-13T18:42:17.300Z,75.60
2018-05-13T18:44:45.894Z,75.16
2018-05-13T18:47:13.375Z,75.30
2018-05-13T18:49:41.026Z,75.43
2018-05-13T18:52:08.499Z,75.26
2018-05-13T18:54:35.982Z,75.65
2018-05-13T18:57:04.631Z,76.00
2018-05-13T18:59:32.096Z,75.85
2018-05-13T19:01:59.538Z,76.16
2018-05-13T19:04:27.016Z,76.47
2018-05-13T19:06:54.481Z,76.42
2018-05-13T19:09:21.952Z,75.95
2018-05-13T19:11:49.405Z,75.91
2018-05-13T19:14:16.840Z,75.92
2018-05-13T19:16:44.293Z,76.06
2018-05-13T19:19:11.747Z,75.93
2018-05-13T19:21:39.243Z,75.97
2018-05-13T19:24:06.733Z,75.81
2018-05-13T19:26:34.221Z,76.27
2018-05-13T19:29:01.635Z,76.33
2018-05-13T19:31:29.044Z,76.10
2018-05-13T19:33:56.475Z,76.20
2018-05-13T19:36:23.945Z,76.26
2018-05-13T19:38:51.407Z,75.80
2018-05-13T19:41:19.897Z,75.30
2018-05-13T19:43:47.789Z,75.38
2018-05-13T19:46:15.203Z,75.55
2018-05-13T19:48:42.631Z,75.88
2018-05-13T19:51:10.069Z,75.79
2018-05-13T19:53:37.535Z,75.46
2018-05-13T19:56:04.964Z,75.23
2018-05-13T19:58:32.362Z,75.07
2018-05-13T20:01:01.230Z,74.81
2018-05-13T20:03:28.858Z,74.26
2018-05-13T20:05:56.070Z,73.62
2018-05-13T20:08:23.483Z,73.67
2018-05-13T20:10:50.918Z,73.58
2018-05-13T20:13:18.305Z,73.10
2018-05-13T20:15:45.932Z,73.09
2018-05-13T20:18:13.381Z,72.89
2018-05-13T20:20:40.800Z,72.48
2018-05-13T20:23:20.127Z,73.26
2018-05-13T20:25:51.231Z,72.71
2018-05-13T20:28:18.663Z,72.49
2018-05-13T20:30:47.276Z,72.65
2018-05-13T20:33:14.825Z,72.54
2018-05-13T20:35:42.272Z,73.23
2018-05-13T20:38:09.712Z,72.76
2018-05-13T20:40:37.209Z,72.72
2018-05-13T20:43:04.701Z,72.82
2018-05-13T20:45:32.157Z,72.72
2018-05-13T20:47:59.674Z,72.21
2018-05-13T20:50:27.125Z,71.81
2018-05-13T20:52:55.251Z,71.63
2018-05-13T20:55:22.664Z,71.27
2018-05-13T20:57:50.702Z,70.94
2018-05-13T21:00:18.244Z,71.51
2018-05-13T21:02:45.765Z,71.88
2018-05-13T21:05:13.303Z,72.47
2018-05-13T21:07:40.685Z,73.29
2018-05-13T21:10:09.007Z,73.91
2018-05-13T21:12:36.463Z,74.09
2018-05-13T21:15:03.858Z,73.21
2018-05-13T21:17:31.279Z,72.33
2018-05-13T21:19:58.812Z,72.34
2018-05-13T21:22:26.212Z,73.60
2018-05-13T21:24:53.615Z,73.15
2018-05-13T21:27:21.037Z,73.39
2018-05-13T21:29:48.469Z,72.90
2018-05-13T21:32:15.884Z,72.49
2018-05-13T21:34:44.075Z,73.09
2018-05-13T21:37:11.670Z,72.43
2018-05-13T21:39:39.102Z,73.01
2018-05-13T21:42:06.505Z,72.13
2018-05-13T21:44:34.120Z,72.82
2018-05-13T21:47:01.805Z,72.61
2018-05-13T21:49:29.168Z,72.80
2018-05-13T21:51:56.611Z,72.90
2018-05-13T21:54:24.916Z,72.68
2018-05-13T21:56:52.700Z,72.51
2018-05-13T21:59:20.099Z,73.01
2018-05-13T22:01:47.585Z,73.75
2018-05-13T22:04:15.150Z,73.69
2018-05-13T22:06:43.590Z,73.19
2018-05-13T22:09:13.535Z,72.28
2018-05-13T22:11:40.935Z,72.18
2018-05-13T22:14:08.407Z,71.83
2018-05-13T22:16:35.833Z,72.17
2018-05-13T22:19:03.401Z,72.67
2018-05-13T22:21:30.975Z,72.80
2018-05-13T22:23:58.453Z,73.15
2018-05-13T22:26:25.930Z,73.34
2018-05-13T22:28:53.367Z,73.62
2018-05-13T22:31:21.216Z,73.77
2018-05-13T22:33:48.769Z,73.63
2018-05-13T22:36:16.214Z,73.38
2018-05-13T22:38:43.658Z,73.55
2018-05-13T22:41:11.103Z,73.75
2018-05-13T22:43:38.546Z,73.76
2018-05-13T22:46:06.841Z,74.20
2018-05-13T22:48:34.289Z,74.31
2018-05-13T22:51:02.784Z,74.03
2018-05-13T22:53:30.247Z,73.48
2018-05-13T22:55:57.690Z,73.37
2018-05-13T22:58:25.238Z,73.48
2018-05-13T23:00:52.639Z,72.98
2018-05-13T23:03:20.680Z,73.09
2018-05-13T23:05:49.264Z,73.34
2018-05-13T23:08:17.564Z,73.31
2018-05-13T23:10:44.965Z,73.18
2018-05-13T23:13:12.498Z,73.09
2018-05-13T23:15:39.919Z,73.34
2018-05-13T23:18:07.391Z,73.26
2018-05-13T23:20:36.783Z,72.98
2018-05-13T23:23:04.231Z,73.54
2018-05-13T23:25:31.651Z,74.06
2018-05-13T23:27:59.106Z,74.21
2018-05-13T23:30:26.575Z,73.99
2018-05-13T23:32:54.073Z,73.82
2018-05-13T23:35:21.509Z,73.81
2018-05-13T23:37:48.899Z,73.39
2018-05-13T23:40:16.371Z,73.31
2018-05-13T23:42:43.817Z,73.37
2018-05-13T23:45:11.289Z,73.12
2018-05-13T23:47:38.777Z,72.90
2018-05-13T23:50:06.246Z,72.52
2018-05-13T23:52:35.146Z,72.91
2018-05-13T23:55:02.560Z,72.62
2018-05-13T23:57:30.969Z,72.71
2018-05-13T23:59:58.395Z,72.79
